sensor_id;sensor_type;location;lat;lon;timestamp;P1;durP1;ratioP1;P2;durP2;ratioP2
751;SDS011;360;48.764;9.164;2022-10-31T00:01:24;1.83;;;1.63;;
751;SDS011;360;48.764;9.164;2022-10-31T00:03:52;2.33;;;1.90;;
751;SDS011;360;48.764;9.164;2022-10-31T00:06:20;4.00;;;2.30;;
751;SDS011;360;48.764;9.164;2022-10-31T00:08:47;2.43;;;1.73;;
751;SDS011;360;48.764;9.164;2022-10-31T00:11:18;5.63;;;1.73;;
751;SDS011;360;48.764;9.164;2022-10-31T00:13:45;2.70;;;2.03;;
751;SDS011;360;48.764;9.164;2022-10-31T00:16:14;2.97;;;2.00;;
751;SDS011;360;48.764;9.164;2022-10-31T00:18:41;2.73;;;1.93;;
751;SDS011;360;48.764;9.164;2022-10-31T00:21:08;2.37;;;2.00;;
751;SDS011;360;48.764;9.164;2022-10-31T00:23:35;4.37;;;2.10;;
751;SDS011;360;48.764;9.164;2022-10-31T00:26:02;3.60;;;1.83;;
751;SDS011;360;48.764;9.164;2022-10-31T00:28:30;5.70;;;2.13;;
751;SDS011;360;48.764;9.164;2022-10-31T00:31:00;4.00;;;2.00;;
751;SDS011;360;48.764;9.164;2022-10-31T00:33:28;3.40;;;2.17;;
751;SDS011;360;48.764;9.164;2022-10-31T00:35:55;3.37;;;2.23;;
751;SDS011;360;48.764;9.164;2022-10-31T00:38:22;4.13;;;1.80;;
751;SDS011;360;48.764;9.164;2022-10-31T00:40:49;2.60;;;1.50;;
751;SDS011;360;48.764;9.164;2022-10-31T00:43:16;9.03;;;2.00;;
751;SDS011;360;48.764;9.164;2022-10-31T00:45:42;2.53;;;1.90;;
751;SDS011;360;48.764;9.164;2022-10-31T00:48:10;2.87;;;2.30;;
751;SDS011;360;48.764;9.164;2022-10-31T00:50:38;2.90;;;1.40;;
751;SDS011;360;48.764;9.164;2022-10-31T00:53:06;2.73;;;2.13;;
751;SDS011;360;48.764;9.164;2022-10-31T00:55:33;3.40;;;2.30;;
751;SDS011;360;48.764;9.164;2022-10-31T00:58:00;2.73;;;1.90;;
751;SDS011;360;48.764;9.164;2022-10-31T01:00:26;5.40;;;2.37;;
751;SDS011;360;48.764;9.164;2022-10-31T01:02:53;3.73;;;2.37;;
751;SDS011;360;48.764;9.164;2022-10-31T01:05:20;2.27;;;1.83;;
751;SDS011;360;48.764;9.164;2022-10-31T01:07:48;6.03;;;3.83;;
751;SDS011;360;48.764;9.164;2022-10-31T01:10:15;2.53;;;1.77;;
751;SDS011;360;48.764;9.164;2022-10-31T01:12:43;5.00;;;2.70;;
751;SDS011;360;48.764;9.164;2022-10-31T01:15:13;3.83;;;2.53;;
751;SDS011;360;48.764;9.164;2022-10-31T01:17:41;3.60;;;1.90;;
751;SDS011;360;48.764;9.164;2022-10-31T01:20:08;3.20;;;2.10;;
751;SDS011;360;48.764;9.164;2022-10-31T01:22:36;3.17;;;1.80;;
751;SDS011;360;48.764;9.164;2022-10-31T01:25:05;4.43;;;2.17;;
751;SDS011;360;48.764;9.164;2022-10-31T01:27:34;4.93;;;2.00;;
751;SDS011;360;48.764;9.164;2022-10-31T01:30:01;3.63;;;1.70;;
751;SDS011;360;48.764;9.164;2022-10-31T01:32:28;5.50;;;2.20;;
751;SDS011;360;48.764;9.164;2022-10-31T01:34:54;2.23;;;1.90;;
751;SDS011;360;48.764;9.164;2022-10-31T01:37:21;2.60;;;1.70;;
751;SDS011;360;48.764;9.164;2022-10-31T01:39:48;2.60;;;1.77;;
751;SDS011;360;48.764;9.164;2022-10-31T01:42:17;2.43;;;1.70;;
751;SDS011;360;48.764;9.164;2022-10-31T01:44:54;3.33;;;1.97;;
751;SDS011;360;48.764;9.164;2022-10-31T01:47:26;2.10;;;1.50;;
751;SDS011;360;48.764;9.164;2022-10-31T01:50:00;6.37;;;2.40;;
751;SDS011;360;48.764;9.164;2022-10-31T01:52:32;6.67;;;2.20;;
751;SDS011;360;48.764;9.164;2022-10-31T01:55:03;5.13;;;2.30;;
751;SDS011;360;48.764;9.164;2022-10-31T01:57:33;2.13;;;1.93;;
751;SDS011;360;48.764;9.164;2022-10-31T02:00:02;3.37;;;2.20;;
751;SDS011;360;48.764;9.164;2022-10-31T02:02:32;8.27;;;2.70;;
751;SDS011;360;48.764;9.164;2022-10-31T02:04:59;4.20;;;2.20;;
751;SDS011;360;48.764;9.164;2022-10-31T02:07:31;2.43;;;1.70;;
751;SDS011;360;48.764;9.164;2022-10-31T02:10:02;5.93;;;2.03;;
751;SDS011;360;48.764;9.164;2022-10-31T02:12:30;3.13;;;2.00;;
751;SDS011;360;48.764;9.164;2022-10-31T02:15:01;3.10;;;1.77;;
751;SDS011;360;48.764;9.164;2022-10-31T02:17:28;7.50;;;1.47;;
751;SDS011;360;48.764;9.164;2022-10-31T02:19:56;5.73;;;2.30;;
751;SDS011;360;48.764;9.164;2022-10-31T02:22:34;3.00;;;1.90;;
751;SDS011;360;48.764;9.164;2022-10-31T02:25:13;4.97;;;2.43;;
751;SDS011;360;48.764;9.164;2022-10-31T02:28:03;4.30;;;2.17;;
751;SDS011;360;48.764;9.164;2022-10-31T02:33:43;2.97;;;1.90;;
751;SDS011;360;48.764;9.164;2022-10-31T02:36:12;8.50;;;2.33;;
751;SDS011;360;48.764;9.164;2022-10-31T02:38:46;2.80;;;1.87;;
751;SDS011;360;48.764;9.164;2022-10-31T02:41:18;4.80;;;1.97;;
751;SDS011;360;48.764;9.164;2022-10-31T02:43:48;3.30;;;1.73;;
751;SDS011;360;48.764;9.164;2022-10-31T02:46:24;2.40;;;2.00;;
751;SDS011;360;48.764;9.164;2022-10-31T02:48:52;3.93;;;1.70;;
751;SDS011;360;48.764;9.164;2022-10-31T02:51:21;2.97;;;1.80;;
751;SDS011;360;48.764;9.164;2022-10-31T02:53:48;4.73;;;2.53;;
751;SDS011;360;48.764;9.164;2022-10-31T02:56:16;7.17;;;2.33;;
751;SDS011;360;48.764;9.164;2022-10-31T02:58:44;3.63;;;1.97;;
751;SDS011;360;48.764;9.164;2022-10-31T03:01:27;1.90;;;1.67;;
751;SDS011;360;48.764;9.164;2022-10-31T03:04:08;4.03;;;2.00;;
751;SDS011;360;48.764;9.164;2022-10-31T03:06:39;2.67;;;1.50;;
751;SDS011;360;48.764;9.164;2022-10-31T03:09:10;4.07;;;2.27;;
751;SDS011;360;48.764;9.164;2022-10-31T03:11:41;2.23;;;1.73;;
751;SDS011;360;48.764;9.164;2022-10-31T03:14:10;3.50;;;1.60;;
751;SDS011;360;48.764;9.164;2022-10-31T03:16:39;3.10;;;2.43;;
751;SDS011;360;48.764;9.164;2022-10-31T03:19:08;4.40;;;2.17;;
751;SDS011;360;48.764;9.164;2022-10-31T03:21:38;4.80;;;3.03;;
751;SDS011;360;48.764;9.164;2022-10-31T03:24:07;3.53;;;1.77;;
751;SDS011;360;48.764;9.164;2022-10-31T03:26:36;6.57;;;3.07;;
751;SDS011;360;48.764;9.164;2022-10-31T03:29:04;7.23;;;2.50;;
751;SDS011;360;48.764;9.164;2022-10-31T03:31:32;4.80;;;2.23;;
751;SDS011;360;48.764;9.164;2022-10-31T03:34:01;3.50;;;1.63;;
751;SDS011;360;48.764;9.164;2022-10-31T03:36:29;3.63;;;2.23;;
751;SDS011;360;48.764;9.164;2022-10-31T03:38:58;3.60;;;1.60;;
751;SDS011;360;48.764;9.164;2022-10-31T03:41:27;5.00;;;2.13;;
751;SDS011;360;48.764;9.164;2022-10-31T03:43:57;2.87;;;2.00;;
751;SDS011;360;48.764;9.164;2022-10-31T03:46:25;3.00;;;2.17;;
751;SDS011;360;48.764;9.164;2022-10-31T03:48:53;5.73;;;2.20;;
751;SDS011;360;48.764;9.164;2022-10-31T03:51:22;3.30;;;2.40;;
751;SDS011;360;48.764;9.164;2022-10-31T03:53:52;2.93;;;2.40;;
751;SDS011;360;48.764;9.164;2022-10-31T03:56:26;2.70;;;1.73;;
751;SDS011;360;48.764;9.164;2022-10-31T03:58:55;3.13;;;2.07;;
751;SDS011;360;48.764;9.164;2022-10-31T04:01:24;3.20;;;2.43;;
751;SDS011;360;48.764;9.164;2022-10-31T04:03:53;4.37;;;2.37;;
751;SDS011;360;48.764;9.164;2022-10-31T04:06:21;2.40;;;1.90;;
751;SDS011;360;48.764;9.164;2022-10-31T04:08:51;2.67;;;1.93;;
751;SDS011;360;48.764;9.164;2022-10-31T04:11:21;5.83;;;2.30;;
751;SDS011;360;48.764;9.164;2022-10-31T04:13:50;1.83;;;1.63;;
751;SDS011;360;48.764;9.164;2022-10-31T04:16:18;3.47;;;2.20;;
751;SDS011;360;48.764;9.164;2022-10-31T04:18:47;6.80;;;2.83;;
751;SDS011;360;48.764;9.164;2022-10-31T04:21:14;1.90;;;1.73;;
751;SDS011;360;48.764;9.164;2022-10-31T04:23:43;5.57;;;1.67;;
751;SDS011;360;48.764;9.164;2022-10-31T04:26:10;5.97;;;2.47;;
751;SDS011;360;48.764;9.164;2022-10-31T04:28:38;3.73;;;2.50;;
751;SDS011;360;48.764;9.164;2022-10-31T04:31:05;4.13;;;2.27;;
751;SDS011;360;48.764;9.164;2022-10-31T04:33:32;3.07;;;1.60;;
751;SDS011;360;48.764;9.164;2022-10-31T04:35:59;3.20;;;2.33;;
751;SDS011;360;48.764;9.164;2022-10-31T04:38:26;3.20;;;2.60;;
751;SDS011;360;48.764;9.164;2022-10-31T04:40:55;7.90;;;2.60;;
751;SDS011;360;48.764;9.164;2022-10-31T04:43:22;3.47;;;2.23;;
751;SDS011;360;48.764;9.164;2022-10-31T04:45:49;2.53;;;1.47;;
751;SDS011;360;48.764;9.164;2022-10-31T04:48:16;4.13;;;2.33;;
751;SDS011;360;48.764;9.164;2022-10-31T04:50:43;2.13;;;1.93;;
751;SDS011;360;48.764;9.164;2022-10-31T04:53:12;4.50;;;2.17;;
751;SDS011;360;48.764;9.164;2022-10-31T04:55:39;4.33;;;2.30;;
751;SDS011;360;48.764;9.164;2022-10-31T04:58:07;6.40;;;2.30;;
751;SDS011;360;48.764;9.164;2022-10-31T05:00:34;3.40;;;2.33;;
751;SDS011;360;48.764;9.164;2022-10-31T05:03:01;3.23;;;2.27;;
751;SDS011;360;48.764;9.164;2022-10-31T05:05:30;7.10;;;2.53;;
751;SDS011;360;48.764;9.164;2022-10-31T05:07:57;2.70;;;2.27;;
751;SDS011;360;48.764;9.164;2022-10-31T05:10:25;2.43;;;1.70;;
751;SDS011;360;48.764;9.164;2022-10-31T05:12:53;2.10;;;1.77;;
751;SDS011;360;48.764;9.164;2022-10-31T05:15:22;3.17;;;1.83;;
751;SDS011;360;48.764;9.164;2022-10-31T05:17:50;2.43;;;1.80;;
751;SDS011;360;48.764;9.164;2022-10-31T05:20:18;2.13;;;1.90;;
751;SDS011;360;48.764;9.164;2022-10-31T05:22:46;3.00;;;1.93;;
751;SDS011;360;48.764;9.164;2022-10-31T05:25:13;1.80;;;1.60;;
751;SDS011;360;48.764;9.164;2022-10-31T05:27:41;2.67;;;1.70;;
751;SDS011;360;48.764;9.164;2022-10-31T05:30:09;5.93;;;2.97;;
751;SDS011;360;48.764;9.164;2022-10-31T05:32:38;3.63;;;1.90;;
751;SDS011;360;48.764;9.164;2022-10-31T05:35:06;2.07;;;1.87;;
751;SDS011;360;48.764;9.164;2022-10-31T05:37:34;3.27;;;2.00;;
751;SDS011;360;48.764;9.164;2022-10-31T05:40:01;6.97;;;1.97;;
751;SDS011;360;48.764;9.164;2022-10-31T05:42:28;6.27;;;2.57;;
751;SDS011;360;48.764;9.164;2022-10-31T05:44:55;4.80;;;2.23;;
751;SDS011;360;48.764;9.164;2022-10-31T05:47:22;4.83;;;2.87;;
751;SDS011;360;48.764;9.164;2022-10-31T05:49:51;6.30;;;2.20;;
751;SDS011;360;48.764;9.164;2022-10-31T05:52:18;3.87;;;2.30;;
751;SDS011;360;48.764;9.164;2022-10-31T05:54:45;3.53;;;2.57;;
751;SDS011;360;48.764;9.164;2022-10-31T05:57:12;8.70;;;2.60;;
751;SDS011;360;48.764;9.164;2022-10-31T05:59:39;4.37;;;3.10;;
751;SDS011;360;48.764;9.164;2022-10-31T06:02:06;3.60;;;2.30;;
751;SDS011;360;48.764;9.164;2022-10-31T06:04:33;4.10;;;2.67;;
751;SDS011;360;48.764;9.164;2022-10-31T06:07:02;3.40;;;1.90;;
751;SDS011;360;48.764;9.164;2022-10-31T06:09:29;3.37;;;2.10;;
751;SDS011;360;48.764;9.164;2022-10-31T06:11:56;3.23;;;1.93;;
751;SDS011;360;48.764;9.164;2022-10-31T06:14:23;3.73;;;2.17;;
751;SDS011;360;48.764;9.164;2022-10-31T06:16:50;3.73;;;2.43;;
751;SDS011;360;48.764;9.164;2022-10-31T06:19:17;6.03;;;2.97;;
751;SDS011;360;48.764;9.164;2022-10-31T06:21:44;4.00;;;2.83;;
751;SDS011;360;48.764;9.164;2022-10-31T06:24:13;7.80;;;3.27;;
751;SDS011;360;48.764;9.164;2022-10-31T06:26:41;2.90;;;2.00;;
751;SDS011;360;48.764;9.164;2022-10-31T06:29:08;4.10;;;2.10;;
751;SDS011;360;48.764;9.164;2022-10-31T06:31:35;3.53;;;2.40;;
751;SDS011;360;48.764;9.164;2022-10-31T06:34:02;6.47;;;2.90;;
751;SDS011;360;48.764;9.164;2022-10-31T06:36:29;4.47;;;2.40;;
751;SDS011;360;48.764;9.164;2022-10-31T06:38:56;2.60;;;2.30;;
751;SDS011;360;48.764;9.164;2022-10-31T06:41:24;2.73;;;1.70;;
751;SDS011;360;48.764;9.164;2022-10-31T06:43:52;6.63;;;2.50;;
751;SDS011;360;48.764;9.164;2022-10-31T06:46:19;4.20;;;2.20;;
751;SDS011;360;48.764;9.164;2022-10-31T06:48:46;6.00;;;3.40;;
751;SDS011;360;48.764;9.164;2022-10-31T06:51:13;2.43;;;2.23;;
751;SDS011;360;48.764;9.164;2022-10-31T06:53:40;6.50;;;2.37;;
751;SDS011;360;48.764;9.164;2022-10-31T06:56:07;2.97;;;2.30;;
751;SDS011;360;48.764;9.164;2022-10-31T06:58:35;5.20;;;2.63;;
751;SDS011;360;48.764;9.164;2022-10-31T07:01:02;3.00;;;2.27;;
751;SDS011;360;48.764;9.164;2022-10-31T07:03:29;4.80;;;2.30;;
751;SDS011;360;48.764;9.164;2022-10-31T07:05:57;5.03;;;2.80;;
751;SDS011;360;48.764;9.164;2022-10-31T07:08:24;2.40;;;2.10;;
751;SDS011;360;48.764;9.164;2022-10-31T07:10:52;10.10;;;3.80;;
751;SDS011;360;48.764;9.164;2022-10-31T07:13:19;5.00;;;2.43;;
751;SDS011;360;48.764;9.164;2022-10-31T07:15:51;4.53;;;2.00;;
751;SDS011;360;48.764;9.164;2022-10-31T07:18:18;3.83;;;2.20;;
751;SDS011;360;48.764;9.164;2022-10-31T07:20:46;4.60;;;3.23;;
751;SDS011;360;48.764;9.164;2022-10-31T07:23:13;3.30;;;2.27;;
751;SDS011;360;48.764;9.164;2022-10-31T07:25:40;4.03;;;2.40;;
751;SDS011;360;48.764;9.164;2022-10-31T07:28:07;4.63;;;2.23;;
751;SDS011;360;48.764;9.164;2022-10-31T07:30:35;3.10;;;2.60;;
751;SDS011;360;48.764;9.164;2022-10-31T07:33:04;4.10;;;2.00;;
751;SDS011;360;48.764;9.164;2022-10-31T07:35:31;3.30;;;2.40;;
751;SDS011;360;48.764;9.164;2022-10-31T07:38:06;4.13;;;2.23;;
751;SDS011;360;48.764;9.164;2022-10-31T07:40:33;4.40;;;2.00;;
751;SDS011;360;48.764;9.164;2022-10-31T07:43:00;5.63;;;2.97;;
751;SDS011;360;48.764;9.164;2022-10-31T07:45:27;6.10;;;2.50;;
751;SDS011;360;48.764;9.164;2022-10-31T07:47:54;3.03;;;1.80;;
751;SDS011;360;48.764;9.164;2022-10-31T07:50:23;5.87;;;3.00;;
751;SDS011;360;48.764;9.164;2022-10-31T07:52:57;6.23;;;3.67;;
751;SDS011;360;48.764;9.164;2022-10-31T07:55:24;6.57;;;3.10;;
751;SDS011;360;48.764;9.164;2022-10-31T07:57:55;4.60;;;2.90;;
751;SDS011;360;48.764;9.164;2022-10-31T08:00:22;7.90;;;2.70;;
751;SDS011;360;48.764;9.164;2022-10-31T08:02:56;6.43;;;2.93;;
751;SDS011;360;48.764;9.164;2022-10-31T08:05:24;3.40;;;2.50;;
751;SDS011;360;48.764;9.164;2022-10-31T08:07:52;2.23;;;2.03;;
751;SDS011;360;48.764;9.164;2022-10-31T08:10:19;4.27;;;2.60;;
751;SDS011;360;48.764;9.164;2022-10-31T08:12:46;3.50;;;2.60;;
751;SDS011;360;48.764;9.164;2022-10-31T08:15:13;3.97;;;2.60;;
751;SDS011;360;48.764;9.164;2022-10-31T08:17:41;6.40;;;2.97;;
751;SDS011;360;48.764;9.164;2022-10-31T08:20:08;4.03;;;2.43;;
751;SDS011;360;48.764;9.164;2022-10-31T08:22:36;7.80;;;2.97;;
751;SDS011;360;48.764;9.164;2022-10-31T08:25:04;3.47;;;2.43;;
751;SDS011;360;48.764;9.164;2022-10-31T08:27:31;4.40;;;2.57;;
751;SDS011;360;48.764;9.164;2022-10-31T08:29:58;5.40;;;3.17;;
751;SDS011;360;48.764;9.164;2022-10-31T08:32:25;7.93;;;3.63;;
751;SDS011;360;48.764;9.164;2022-10-31T08:34:52;6.17;;;3.00;;
751;SDS011;360;48.764;9.164;2022-10-31T08:37:19;5.60;;;3.60;;
751;SDS011;360;48.764;9.164;2022-10-31T08:39:48;6.20;;;3.70;;
751;SDS011;360;48.764;9.164;2022-10-31T08:42:15;5.40;;;3.83;;
751;SDS011;360;48.764;9.164;2022-10-31T08:44:42;5.67;;;3.30;;
751;SDS011;360;48.764;9.164;2022-10-31T08:47:09;8.50;;;2.87;;
751;SDS011;360;48.764;9.164;2022-10-31T08:49:36;7.23;;;3.33;;
751;SDS011;360;48.764;9.164;2022-10-31T08:52:03;4.90;;;3.30;;
751;SDS011;360;48.764;9.164;2022-10-31T08:54:30;7.00;;;2.90;;
751;SDS011;360;48.764;9.164;2022-10-31T08:56:59;8.93;;;3.27;;
751;SDS011;360;48.764;9.164;2022-10-31T08:59:26;4.73;;;2.73;;
751;SDS011;360;48.764;9.164;2022-10-31T09:01:53;4.77;;;3.27;;
751;SDS011;360;48.764;9.164;2022-10-31T09:04:20;5.60;;;3.87;;
751;SDS011;360;48.764;9.164;2022-10-31T09:06:47;5.93;;;3.50;;
751;SDS011;360;48.764;9.164;2022-10-31T09:09:15;6.13;;;3.10;;
751;SDS011;360;48.764;9.164;2022-10-31T09:11:42;4.60;;;3.00;;
751;SDS011;360;48.764;9.164;2022-10-31T09:14:10;3.70;;;3.20;;
751;SDS011;360;48.764;9.164;2022-10-31T09:16:37;5.60;;;3.83;;
751;SDS011;360;48.764;9.164;2022-10-31T09:19:04;6.87;;;3.93;;
751;SDS011;360;48.764;9.164;2022-10-31T09:21:31;6.17;;;3.53;;
751;SDS011;360;48.764;9.164;2022-10-31T09:23:58;5.87;;;3.27;;
751;SDS011;360;48.764;9.164;2022-10-31T09:26:25;6.87;;;4.00;;
751;SDS011;360;48.764;9.164;2022-10-31T09:28:53;10.73;;;3.17;;
751;SDS011;360;48.764;9.164;2022-10-31T09:31:21;12.03;;;3.80;;
751;SDS011;360;48.764;9.164;2022-10-31T09:33:48;6.20;;;3.60;;
751;SDS011;360;48.764;9.164;2022-10-31T09:36:15;7.67;;;4.27;;
751;SDS011;360;48.764;9.164;2022-10-31T09:38:42;4.83;;;3.63;;
751;SDS011;360;48.764;9.164;2022-10-31T09:41:13;7.00;;;3.40;;
751;SDS011;360;48.764;9.164;2022-10-31T09:43:44;5.30;;;3.67;;
751;SDS011;360;48.764;9.164;2022-10-31T09:46:13;5.47;;;4.03;;
751;SDS011;360;48.764;9.164;2022-10-31T09:48:50;5.03;;;3.73;;
751;SDS011;360;48.764;9.164;2022-10-31T09:51:23;5.53;;;3.60;;
751;SDS011;360;48.764;9.164;2022-10-31T09:53:52;6.50;;;4.17;;
751;SDS011;360;48.764;9.164;2022-10-31T09:56:21;4.07;;;3.20;;
751;SDS011;360;48.764;9.164;2022-10-31T09:58:49;4.83;;;4.00;;
751;SDS011;360;48.764;9.164;2022-10-31T10:04:03;4.23;;;3.40;;
751;SDS011;360;48.764;9.164;2022-10-31T10:06:32;6.70;;;4.17;;
751;SDS011;360;48.764;9.164;2022-10-31T10:09:00;7.23;;;3.63;;
751;SDS011;360;48.764;9.164;2022-10-31T10:11:37;4.77;;;3.60;;
751;SDS011;360;48.764;9.164;2022-10-31T10:14:11;6.87;;;3.20;;
751;SDS011;360;48.764;9.164;2022-10-31T10:16:45;8.60;;;4.87;;
751;SDS011;360;48.764;9.164;2022-10-31T10:19:20;9.10;;;3.70;;
751;SDS011;360;48.764;9.164;2022-10-31T10:21:51;7.77;;;4.17;;
751;SDS011;360;48.764;9.164;2022-10-31T10:24:23;15.57;;;4.80;;
751;SDS011;360;48.764;9.164;2022-10-31T10:26:56;6.03;;;4.20;;
751;SDS011;360;48.764;9.164;2022-10-31T10:29:28;4.30;;;3.70;;
751;SDS011;360;48.764;9.164;2022-10-31T10:31:57;10.13;;;3.77;;
751;SDS011;360;48.764;9.164;2022-10-31T10:34:27;7.80;;;4.57;;
751;SDS011;360;48.764;9.164;2022-10-31T10:36:57;6.23;;;3.83;;
751;SDS011;360;48.764;9.164;2022-10-31T10:39:27;9.20;;;4.50;;
751;SDS011;360;48.764;9.164;2022-10-31T10:41:57;5.33;;;3.70;;
751;SDS011;360;48.764;9.164;2022-10-31T10:44:48;6.67;;;3.77;;
751;SDS011;360;48.764;9.164;2022-10-31T10:47:36;8.27;;;4.30;;
751;SDS011;360;48.764;9.164;2022-10-31T10:50:09;5.67;;;4.57;;
751;SDS011;360;48.764;9.164;2022-10-31T10:52:39;5.30;;;4.33;;
751;SDS011;360;48.764;9.164;2022-10-31T10:55:11;4.53;;;3.57;;
751;SDS011;360;48.764;9.164;2022-10-31T10:57:49;4.53;;;3.47;;
751;SDS011;360;48.764;9.164;2022-10-31T11:00:20;6.07;;;4.70;;
751;SDS011;360;48.764;9.164;2022-10-31T11:02:47;7.77;;;3.73;;
751;SDS011;360;48.764;9.164;2022-10-31T11:05:18;5.90;;;4.07;;
751;SDS011;360;48.764;9.164;2022-10-31T11:07:48;8.77;;;4.30;;
751;SDS011;360;48.764;9.164;2022-10-31T11:10:15;6.50;;;4.10;;
751;SDS011;360;48.764;9.164;2022-10-31T11:12:43;6.73;;;3.93;;
751;SDS011;360;48.764;9.164;2022-10-31T11:15:17;6.20;;;4.20;;
751;SDS011;360;48.764;9.164;2022-10-31T11:17:47;7.63;;;4.20;;
751;SDS011;360;48.764;9.164;2022-10-31T11:20:27;6.40;;;3.30;;
751;SDS011;360;48.764;9.164;2022-10-31T11:23:00;6.57;;;3.60;;
751;SDS011;360;48.764;9.164;2022-10-31T11:25:28;8.80;;;4.93;;
751;SDS011;360;48.764;9.164;2022-10-31T11:27:58;8.93;;;4.17;;
751;SDS011;360;48.764;9.164;2022-10-31T11:30:26;4.70;;;4.00;;
751;SDS011;360;48.764;9.164;2022-10-31T11:32:53;6.00;;;3.53;;
751;SDS011;360;48.764;9.164;2022-10-31T11:35:21;9.40;;;4.40;;
751;SDS011;360;48.764;9.164;2022-10-31T11:37:50;7.83;;;3.77;;
751;SDS011;360;48.764;9.164;2022-10-31T11:40:20;7.87;;;3.73;;
751;SDS011;360;48.764;9.164;2022-10-31T11:42:47;6.57;;;4.37;;
751;SDS011;360;48.764;9.164;2022-10-31T11:45:16;4.90;;;3.17;;
751;SDS011;360;48.764;9.164;2022-10-31T11:47:46;4.77;;;3.93;;
751;SDS011;360;48.764;9.164;2022-10-31T11:50:18;5.13;;;3.70;;
751;SDS011;360;48.764;9.164;2022-10-31T11:52:45;4.67;;;3.50;;
751;SDS011;360;48.764;9.164;2022-10-31T11:55:17;6.50;;;4.20;;
751;SDS011;360;48.764;9.164;2022-10-31T11:57:57;6.17;;;3.43;;
751;SDS011;360;48.764;9.164;2022-10-31T12:00:25;8.20;;;3.27;;
751;SDS011;360;48.764;9.164;2022-10-31T12:03:04;5.93;;;4.20;;
751;SDS011;360;48.764;9.164;2022-10-31T12:05:36;5.40;;;4.27;;
751;SDS011;360;48.764;9.164;2022-10-31T12:08:06;4.70;;;4.17;;
751;SDS011;360;48.764;9.164;2022-10-31T12:10:37;7.13;;;4.40;;
751;SDS011;360;48.764;9.164;2022-10-31T12:13:17;3.87;;;3.50;;
751;SDS011;360;48.764;9.164;2022-10-31T12:15:58;4.20;;;3.80;;
751;SDS011;360;48.764;9.164;2022-10-31T12:18:35;6.43;;;3.83;;
751;SDS011;360;48.764;9.164;2022-10-31T12:21:15;5.97;;;3.80;;
751;SDS011;360;48.764;9.164;2022-10-31T12:23:52;8.00;;;3.70;;
751;SDS011;360;48.764;9.164;2022-10-31T12:26:31;6.10;;;3.60;;
751;SDS011;360;48.764;9.164;2022-10-31T12:29:18;6.13;;;4.53;;
751;SDS011;360;48.764;9.164;2022-10-31T12:32:00;4.70;;;4.00;;
751;SDS011;360;48.764;9.164;2022-10-31T12:37:40;6.63;;;5.30;;
751;SDS011;360;48.764;9.164;2022-10-31T12:40:24;6.17;;;4.63;;
751;SDS011;360;48.764;9.164;2022-10-31T12:43:08;8.57;;;4.90;;
751;SDS011;360;48.764;9.164;2022-10-31T12:45:56;11.70;;;6.17;;
751;SDS011;360;48.764;9.164;2022-10-31T12:48:30;7.77;;;4.60;;
751;SDS011;360;48.764;9.164;2022-10-31T12:51:15;8.53;;;4.43;;
751;SDS011;360;48.764;9.164;2022-10-31T12:53:52;7.57;;;5.30;;
751;SDS011;360;48.764;9.164;2022-10-31T12:56:32;7.17;;;5.50;;
751;SDS011;360;48.764;9.164;2022-10-31T12:59:10;12.23;;;5.60;;
751;SDS011;360;48.764;9.164;2022-10-31T13:01:45;5.97;;;4.67;;
751;SDS011;360;48.764;9.164;2022-10-31T13:04:16;7.13;;;5.07;;
751;SDS011;360;48.764;9.164;2022-10-31T13:06:49;9.43;;;6.13;;
751;SDS011;360;48.764;9.164;2022-10-31T13:09:20;7.07;;;4.27;;
751;SDS011;360;48.764;9.164;2022-10-31T13:11:53;6.17;;;4.30;;
751;SDS011;360;48.764;9.164;2022-10-31T13:14:25;7.90;;;4.93;;
751;SDS011;360;48.764;9.164;2022-10-31T13:16:56;6.90;;;4.20;;
751;SDS011;360;48.764;9.164;2022-10-31T13:19:27;5.83;;;4.23;;
751;SDS011;360;48.764;9.164;2022-10-31T13:22:00;6.70;;;3.93;;
751;SDS011;360;48.764;9.164;2022-10-31T13:24:33;6.80;;;4.77;;
751;SDS011;360;48.764;9.164;2022-10-31T13:27:03;4.90;;;4.40;;
751;SDS011;360;48.764;9.164;2022-10-31T13:29:42;4.63;;;4.10;;
751;SDS011;360;48.764;9.164;2022-10-31T13:32:16;7.90;;;5.10;;
751;SDS011;360;48.764;9.164;2022-10-31T13:34:45;5.87;;;4.03;;
751;SDS011;360;48.764;9.164;2022-10-31T13:37:17;6.50;;;4.40;;
751;SDS011;360;48.764;9.164;2022-10-31T13:39:58;5.90;;;4.43;;
751;SDS011;360;48.764;9.164;2022-10-31T13:42:43;8.13;;;4.40;;
751;SDS011;360;48.764;9.164;2022-10-31T13:45:19;6.83;;;3.70;;
751;SDS011;360;48.764;9.164;2022-10-31T13:47:58;10.73;;;4.27;;
751;SDS011;360;48.764;9.164;2022-10-31T13:50:26;6.00;;;4.13;;
751;SDS011;360;48.764;9.164;2022-10-31T13:53:09;8.27;;;4.80;;
751;SDS011;360;48.764;9.164;2022-10-31T13:55:39;6.70;;;4.07;;
751;SDS011;360;48.764;9.164;2022-10-31T13:58:21;6.20;;;3.87;;
751;SDS011;360;48.764;9.164;2022-10-31T14:01:01;8.13;;;4.50;;
751;SDS011;360;48.764;9.164;2022-10-31T14:03:38;6.00;;;4.60;;
751;SDS011;360;48.764;9.164;2022-10-31T14:06:07;5.97;;;4.40;;
751;SDS011;360;48.764;9.164;2022-10-31T14:08:35;9.67;;;4.37;;
751;SDS011;360;48.764;9.164;2022-10-31T14:11:06;5.10;;;3.80;;
751;SDS011;360;48.764;9.164;2022-10-31T14:13:35;8.10;;;4.67;;
751;SDS011;360;48.764;9.164;2022-10-31T14:16:16;5.23;;;4.47;;
751;SDS011;360;48.764;9.164;2022-10-31T14:18:48;7.90;;;4.13;;
751;SDS011;360;48.764;9.164;2022-10-31T14:21:25;5.33;;;4.03;;
751;SDS011;360;48.764;9.164;2022-10-31T14:23:54;6.90;;;4.40;;
751;SDS011;360;48.764;9.164;2022-10-31T14:29:24;5.43;;;4.10;;
751;SDS011;360;48.764;9.164;2022-10-31T14:31:55;7.57;;;5.00;;
751;SDS011;360;48.764;9.164;2022-10-31T14:34:36;9.33;;;5.60;;
751;SDS011;360;48.764;9.164;2022-10-31T14:37:13;8.23;;;4.73;;
751;SDS011;360;48.764;9.164;2022-10-31T14:39:54;8.60;;;4.90;;
751;SDS011;360;48.764;9.164;2022-10-31T14:42:32;8.50;;;4.97;;
751;SDS011;360;48.764;9.164;2022-10-31T14:45:15;7.00;;;5.20;;
751;SDS011;360;48.764;9.164;2022-10-31T14:47:55;9.00;;;6.23;;
751;SDS011;360;48.764;9.164;2022-10-31T14:50:42;6.20;;;4.63;;
751;SDS011;360;48.764;9.164;2022-10-31T14:53:14;11.63;;;5.23;;
751;SDS011;360;48.764;9.164;2022-10-31T14:55:47;6.77;;;4.63;;
751;SDS011;360;48.764;9.164;2022-10-31T14:58:17;9.53;;;4.93;;
751;SDS011;360;48.764;9.164;2022-10-31T15:00:48;9.03;;;4.57;;
751;SDS011;360;48.764;9.164;2022-10-31T15:03:21;6.67;;;4.80;;
751;SDS011;360;48.764;9.164;2022-10-31T15:05:51;7.80;;;5.30;;
751;SDS011;360;48.764;9.164;2022-10-31T15:08:27;6.80;;;4.87;;
751;SDS011;360;48.764;9.164;2022-10-31T15:10:58;7.43;;;4.07;;
751;SDS011;360;48.764;9.164;2022-10-31T15:13:28;6.10;;;4.43;;
751;SDS011;360;48.764;9.164;2022-10-31T15:15:55;5.90;;;5.00;;
751;SDS011;360;48.764;9.164;2022-10-31T15:18:24;10.20;;;5.57;;
751;SDS011;360;48.764;9.164;2022-10-31T15:20:53;5.50;;;3.90;;
751;SDS011;360;48.764;9.164;2022-10-31T15:23:22;9.47;;;4.67;;
751;SDS011;360;48.764;9.164;2022-10-31T15:25:51;7.03;;;4.10;;
751;SDS011;360;48.764;9.164;2022-10-31T15:28:25;5.23;;;4.40;;
751;SDS011;360;48.764;9.164;2022-10-31T15:30:53;7.60;;;4.27;;
751;SDS011;360;48.764;9.164;2022-10-31T15:33:21;8.60;;;4.47;;
751;SDS011;360;48.764;9.164;2022-10-31T15:35:54;6.60;;;4.70;;
751;SDS011;360;48.764;9.164;2022-10-31T15:38:23;10.87;;;3.90;;
751;SDS011;360;48.764;9.164;2022-10-31T15:40:51;6.30;;;4.00;;
751;SDS011;360;48.764;9.164;2022-10-31T15:43:20;8.40;;;4.80;;
751;SDS011;360;48.764;9.164;2022-10-31T15:45:47;5.40;;;4.43;;
751;SDS011;360;48.764;9.164;2022-10-31T15:48:15;6.47;;;4.40;;
751;SDS011;360;48.764;9.164;2022-10-31T15:50:46;8.90;;;4.50;;
751;SDS011;360;48.764;9.164;2022-10-31T15:53:16;9.53;;;5.27;;
751;SDS011;360;48.764;9.164;2022-10-31T15:55:46;5.33;;;3.43;;
751;SDS011;360;48.764;9.164;2022-10-31T15:58:16;6.20;;;4.60;;
751;SDS011;360;48.764;9.164;2022-10-31T16:00:43;4.80;;;4.30;;
751;SDS011;360;48.764;9.164;2022-10-31T16:03:20;10.17;;;4.50;;
751;SDS011;360;48.764;9.164;2022-10-31T16:05:52;8.70;;;5.17;;
751;SDS011;360;48.764;9.164;2022-10-31T16:08:22;9.30;;;4.60;;
751;SDS011;360;48.764;9.164;2022-10-31T16:10:50;9.87;;;6.10;;
751;SDS011;360;48.764;9.164;2022-10-31T16:13:17;5.87;;;5.10;;
751;SDS011;360;48.764;9.164;2022-10-31T16:15:48;7.67;;;4.80;;